Time;durP1;ratioP1;P1;durP2;ratioP2;P2;SDS_P1;SDS_P2;PMS_P1;PMS_P2;Temp;Humidity;BMP_temperature;BMP_pressure;BME280_temperature;BME280_humidity;BME280_pressure;Samples;Min_cycle;Max_cycle;Signal;HPM_P1;HPM_P2
2022/05/02 00:00:34;;;;;;;21.10;15.93;;;;;;;4.54;100.00;102067.88;5303676;27;20059;-76
2022/05/02 00:03:05;;;;;;;19.85;16.02;;;;;;;4.48;100.00;102071.69;5290337;28;20416;-76
2022/05/02 00:05:37;;;;;;;24.55;16.67;;;;;;;4.46;100.00;102062.13;5288372;28;20140;-76
2022/05/02 00:08:09;;;;;;;24.38;17.42;;;;;;;4.45;100.00;102063.03;5290796;28;20376;-76
2022/05/02 00:10:40;;;;;;;27.85;17.88;;;;;;;4.49;100.00;102062.84;5284430;28;20475;-76
2022/05/02 00:13:11;;;;;;;23.95;16.88;;;;;;;4.36;100.00;102066.97;5291015;28;20471;-76
2022/05/02 00:15:43;;;;;;;21.58;17.17;;;;;;;4.17;100.00;102064.34;5298691;27;20411;-76
2022/05/02 00:18:14;;;;;;;28.63;17.80;;;;;;;4.29;100.00;102061.13;5295067;28;20103;-77
2022/05/02 00:20:45;;;;;;;24.23;17.33;;;;;;;4.25;100.00;102062.19;5286699;28;20371;-76
2022/05/02 00:23:16;;;;;;;28.88;18.58;;;;;;;4.32;100.00;102050.41;5286129;28;20455;-76
2022/05/02 00:25:48;;;;;;;28.35;17.58;;;;;;;4.22;100.00;102058.84;5284929;28;20479;-76
2022/05/02 00:28:19;;;;;;;29.40;17.70;;;;;;;4.17;100.00;102053.78;5286817;28;20468;-76
2022/05/02 00:30:50;;;;;;;25.23;17.52;;;;;;;4.09;100.00;102055.94;5283894;28;20459;-76
2022/05/02 00:33:21;;;;;;;23.98;16.88;;;;;;;4.00;100.00;102056.31;5288460;28;20157;-76
2022/05/02 00:35:52;;;;;;;23.52;16.88;;;;;;;3.84;100.00;102046.50;5282120;28;20082;-76
2022/05/02 00:38:24;;;;;;;25.02;17.60;;;;;;;3.87;100.00;102046.34;5289964;28;21173;-76
2022/05/02 00:40:56;;;;;;;26.25;16.80;;;;;;;3.54;100.00;102053.97;5290151;28;20025;-76
2022/05/02 00:43:27;;;;;;;27.95;16.30;;;;;;;3.47;100.00;102042.84;5287490;28;20112;-76
2022/05/02 00:45:59;;;;;;;24.33;18.10;;;;;;;3.38;100.00;102038.84;5288502;28;20031;-77
2022/05/02 00:48:31;;;;;;;20.90;16.08;;;;;;;3.24;100.00;102040.34;5301398;27;20192;-77
2022/05/02 00:51:02;;;;;;;28.02;17.00;;;;;;;3.19;100.00;102043.16;5290602;28;20049;-77
2022/05/02 00:53:33;;;;;;;27.10;16.55;;;;;;;2.97;100.00;102036.16;5299444;27;42209;-77
2022/05/02 00:56:06;;;;;;;24.55;16.30;;;;;;;3.15;100.00;102041.59;5290671;28;20025;-77
2022/05/02 00:58:38;;;;;;;22.55;17.27;;;;;;;3.38;100.00;102044.13;5290549;28;20029;-77
2022/05/02 01:01:09;;;;;;;28.48;20.15;;;;;;;3.28;100.00;102034.00;5304661;28;20021;-77
2022/05/02 01:03:40;;;;;;;25.98;19.60;;;;;;;3.19;100.00;102038.78;5288392;28;20499;-77
2022/05/02 01:09:18;;;;;;;24.50;18.17;;;;;;;3.17;100.00;102035.34;5225527;28;20468;-77
2022/05/02 01:11:50;;;;;;;32.67;21.70;;;;;;;3.21;100.00;102038.72;5276635;28;20090;-77
2022/05/02 01:14:21;;;;;;;29.13;21.73;;;;;;;2.97;100.00;102033.53;5285969;28;20021;-77
2022/05/02 01:16:52;;;;;;;28.35;20.80;;;;;;;2.88;100.00;102033.06;5290542;28;20021;-77
2022/05/02 01:19:23;;;;;;;23.98;19.13;;;;;;;2.79;100.00;102029.03;5285050;28;20021;-77
2022/05/02 01:21:55;;;;;;;26.20;19.88;;;;;;;2.67;100.00;102034.81;5287085;28;20376;-77
2022/05/02 01:24:37;;;;;;;21.90;18.40;;;;;;;2.62;100.00;102035.84;5300870;27;20471;-77
2022/05/02 01:27:10;;;;;;;25.73;19.42;;;;;;;2.59;100.00;102028.03;5286247;28;20122;-77
2022/05/02 01:29:43;;;;;;;28.02;21.20;;;;;;;2.64;100.00;102030.50;5304284;27;20083;-77
2022/05/02 01:32:15;;;;;;;24.45;19.30;;;;;;;2.45;100.00;102031.25;5285086;27;20037;-77
2022/05/02 01:34:46;;;;;;;22.17;18.65;;;;;;;2.34;100.00;102015.00;5289286;28;20037;-77
2022/05/02 01:37:18;;;;;;;23.77;19.77;;;;;;;2.46;100.00;102024.22;5291214;28;20028;-77
2022/05/02 01:39:49;;;;;;;28.13;20.45;;;;;;;2.34;100.00;102022.91;5287533;28;20077;-77
2022/05/02 01:42:20;;;;;;;27.23;20.35;;;;;;;2.30;100.00;102030.97;5285975;28;20036;-77
2022/05/02 01:44:52;;;;;;;27.92;21.00;;;;;;;2.29;100.00;102027.50;5300907;27;20052;-77
2022/05/02 01:47:23;;;;;;;25.30;20.83;;;;;;;2.22;100.00;102020.75;5287416;28;20153;-77
2022/05/02 01:49:54;;;;;;;26.83;19.55;;;;;;;2.25;100.00;102018.88;5286199;28;20063;-77
2022/05/02 01:52:25;;;;;;;30.95;22.63;;;;;;;2.22;100.00;102020.75;5280923;28;20071;-77
2022/05/02 01:54:57;;;;;;;29.17;21.65;;;;;;;2.11;100.00;102015.91;5283804;28;20103;-77
2022/05/02 01:57:28;;;;;;;27.27;21.42;;;;;;;2.04;100.00;102017.91;5292096;28;20033;-77
2022/05/02 01:59:59;;;;;;;27.25;21.10;;;;;;;2.03;100.00;102016.22;5290168;28;20029;-77
2022/05/02 02:02:31;;;;;;;23.52;17.50;;;;;;;1.98;100.00;102014.66;5286013;28;20033;-77
2022/05/02 02:07:52;;;;;;;24.38;18.85;;;;;;;2.04;100.00;102010.03;5286095;28;20025;-77
2022/05/02 02:10:23;;;;;;;26.75;18.17;;;;;;;2.21;100.00;102006.75;5285483;28;20048;-77
2022/05/02 02:12:55;;;;;;;26.23;19.45;;;;;;;2.33;100.00;102010.69;5293557;27;20386;-77
2022/05/02 02:15:26;;;;;;;28.08;19.52;;;;;;;2.33;100.00;102007.16;5293400;28;20413;-76
2022/05/02 02:17:57;;;;;;;28.23;21.20;;;;;;;2.43;100.00;102013.78;5290107;28;20518;-77
2022/05/02 02:20:28;;;;;;;31.45;20.67;;;;;;;2.53;100.00;102012.50;5289864;28;21039;-76
2022/05/02 02:23:00;;;;;;;32.90;22.35;;;;;;;2.53;100.00;102015.13;5288579;28;20557;-77
2022/05/02 02:25:32;;;;;;;39.95;26.13;;;;;;;2.48;100.00;102019.72;5294349;28;20474;-77
2022/05/02 02:28:04;;;;;;;28.70;20.65;;;;;;;2.68;100.00;102021.56;5294989;28;20121;-77
2022/05/02 02:30:35;;;;;;;29.13;21.30;;;;;;;2.57;100.00;102015.88;5291107;28;20078;-77
2022/05/02 02:33:07;;;;;;;41.97;27.13;;;;;;;2.38;100.00;102021.00;5288287;28;20020;-77
2022/05/02 02:35:38;;;;;;;31.17;21.63;;;;;;;2.50;100.00;102012.63;5290487;28;20114;-77
2022/05/02 02:38:12;;;;;;;27.67;21.52;;;;;;;2.30;100.00;102012.53;5290794;27;20028;-77
2022/05/02 02:40:44;;;;;;;34.17;25.15;;;;;;;2.35;100.00;102015.84;5286302;28;20493;-76
2022/05/02 02:43:15;;;;;;;43.45;27.95;;;;;;;2.21;100.00;102019.91;5284885;28;20025;-76
2022/05/02 02:45:46;;;;;;;34.55;22.27;;;;;;;2.26;100.00;102002.16;5295749;28;20037;-77
2022/05/02 02:48:18;;;;;;;37.05;24.73;;;;;;;2.12;100.00;102006.22;5290956;28;20086;-77
2022/05/02 02:50:49;;;;;;;43.83;27.83;;;;;;;2.17;100.00;102009.53;5290076;28;20045;-77
2022/05/02 02:53:20;;;;;;;40.33;28.75;;;;;;;1.98;100.00;101994.47;5290597;28;20021;-77
2022/05/02 02:55:51;;;;;;;41.08;28.13;;;;;;;1.90;100.00;101999.16;5293264;28;20078;-77
2022/05/02 02:58:23;;;;;;;42.05;29.33;;;;;;;1.71;100.00;101985.84;5289324;28;20108;-76
2022/05/02 03:00:54;;;;;;;31.40;21.13;;;;;;;1.95;100.00;101993.75;5288613;28;20052;-76
2022/05/02 03:03:27;;;;;;;33.47;23.83;;;;;;;1.82;100.00;101985.44;5286146;28;20025;-76
2022/05/02 03:06:02;;;;;;;36.50;25.48;;;;;;;1.94;100.00;101984.13;5294704;28;20521;-77
2022/05/02 03:08:38;;;;;;;28.80;21.70;;;;;;;1.73;100.00;101984.00;5288059;28;20033;-77
2022/05/02 03:11:10;;;;;;;;;;;;;;;1.73;100.00;101991.91;5287427;28;20179;-77
2022/05/02 03:13:42;;;;;;;38.35;25.73;;;;;;;1.50;100.00;101984.88;5291980;28;20080;-77
2022/05/02 03:16:13;;;;;;;39.75;26.27;;;;;;;1.48;100.00;101984.91;5292613;28;20537;-77
2022/05/02 03:18:44;;;;;;;32.58;23.48;;;;;;;1.42;100.00;101994.78;5293856;28;21541;-77
2022/05/02 03:21:16;;;;;;;39.67;25.95;;;;;;;1.30;100.00;101985.59;5285110;28;20071;-76
2022/05/02 03:23:47;;;;;;;36.53;25.88;;;;;;;1.21;100.00;101980.63;5289634;28;20067;-77
2022/05/02 03:26:18;;;;;;;36.00;24.17;;;;;;;1.22;100.00;101985.84;5293626;28;20084;-77
2022/05/02 03:28:49;;;;;;;36.97;25.38;;;;;;;1.12;100.00;101987.06;5288316;28;20035;-77
2022/05/02 03:31:21;;;;;;;33.15;24.17;;;;;;;1.16;100.00;101978.19;5287655;28;20113;-77
2022/05/02 03:33:52;;;;;;;26.02;18.20;;;;;;;1.29;100.00;101978.59;5289685;28;20072;-77
2022/05/02 03:36:23;;;;;;;36.55;23.95;;;;;;;1.15;100.00;101981.72;5290412;27;20037;-77
2022/05/02 03:38:55;;;;;;;36.22;21.83;;;;;;;1.16;100.00;101978.19;5288568;28;20532;-77
2022/05/02 03:41:26;;;;;;;29.45;21.42;;;;;;;1.12;100.00;101977.44;5286788;28;20422;-76
2022/05/02 03:43:58;;;;;;;35.92;23.02;;;;;;;1.13;100.00;101979.16;5293626;28;20028;-76
2022/05/02 03:46:29;;;;;;;35.45;22.40;;;;;;;1.11;100.00;101977.50;5287095;28;21108;-76
2022/05/02 03:49:00;;;;;;;36.95;23.90;;;;;;;0.67;100.00;101974.63;5288462;28;20121;-76
2022/05/02 03:51:32;;;;;;;32.42;22.38;;;;;;;0.79;100.00;101981.22;5291237;28;20103;-76
2022/05/02 03:54:03;;;;;;;31.15;19.95;;;;;;;0.81;100.00;101984.63;5299441;28;20075;-76
2022/05/02 03:56:35;;;;;;;25.20;17.27;;;;;;;0.78;100.00;101982.13;5288280;28;20146;-76
2022/05/02 03:59:06;;;;;;;25.70;17.45;;;;;;;0.89;100.00;101985.25;5288098;28;20098;-76
2022/05/02 04:01:40;;;;;;;22.48;16.27;;;;;;;1.02;100.00;101988.34;5287164;28;20103;-76
2022/05/02 04:04:11;;;;;;;30.60;19.80;;;;;;;1.03;100.00;101982.16;5294222;28;21964;-75
2022/05/02 04:06:42;;;;;;;32.17;19.95;;;;;;;1.15;100.00;101980.88;5287522;28;20402;-75
2022/05/02 04:09:14;;;;;;;31.48;20.10;;;;;;;1.29;100.00;101989.97;5290263;28;20107;-76
2022/05/02 04:11:45;;;;;;;36.53;23.77;;;;;;;1.58;100.00;101984.56;5285464;28;20902;-76
2022/05/02 04:14:17;;;;;;;37.75;23.73;;;;;;;1.61;100.00;101984.47;5290011;28;20502;-75
2022/05/02 04:16:49;;;;;;;37.83;23.50;;;;;;;1.69;100.00;101982.41;5288702;28;20025;-75
2022/05/02 04:19:21;;;;;;;39.03;25.13;;;;;;;1.72;100.00;101982.31;5288114;28;20169;-75
2022/05/02 04:21:53;;;;;;;44.00;27.02;;;;;;;1.69;100.00;101992.94;5289911;28;20056;-75
2022/05/02 04:24:24;;;;;;;41.63;25.73;;;;;;;1.86;100.00;101980.00;5294523;28;20600;-76
2022/05/02 04:26:57;;;;;;;44.67;26.35;;;;;;;2.07;100.00;101986.22;5288178;28;20037;-76
2022/05/02 04:29:29;;;;;;;48.55;30.55;;;;;;;2.14;100.00;101984.22;5288376;28;20524;-76
2022/05/02 04:32:00;;;;;;;47.70;29.00;;;;;;;2.30;100.00;101983.59;5293787;28;20032;-76
2022/05/02 04:34:31;;;;;;;53.25;29.27;;;;;;;2.23;100.00;101994.38;5292757;28;41840;-75
2022/05/02 04:37:03;;;;;;;54.85;30.13;;;;;;;2.30;100.00;101984.47;5285430;28;20033;-76
2022/05/02 04:39:34;;;;;;;49.72;28.85;;;;;;;2.53;100.00;101986.16;5286867;28;20048;-76
2022/05/02 04:42:06;;;;;;;43.42;28.58;;;;;;;2.61;100.00;101977.94;5300546;27;20037;-76
2022/05/02 04:44:39;;;;;;;51.28;30.95;;;;;;;2.52;100.00;101983.59;5287539;28;20475;-75
2022/05/02 04:47:10;;;;;;;52.50;31.60;;;;;;;2.70;100.00;101984.59;5287771;28;20029;-74
2022/05/02 04:49:42;;;;;;;51.85;30.70;;;;;;;2.83;100.00;101984.03;5303858;27;20040;-74
2022/05/02 04:52:13;;;;;;;52.92;32.08;;;;;;;2.92;100.00;101988.06;5281920;28;20037;-74
2022/05/02 04:54:44;;;;;;;62.83;34.78;;;;;;;2.95;100.00;101987.94;5291532;28;20025;-75
2022/05/02 04:57:15;;;;;;;53.17;34.22;;;;;;;2.97;100.00;101983.44;5290765;28;20028;-76
2022/05/02 04:59:47;;;;;;;71.40;38.13;;;;;;;3.06;100.00;101989.25;5290302;28;20044;-76
2022/05/02 05:02:18;;;;;;;56.47;34.08;;;;;;;3.23;100.00;101992.03;5291423;28;20063;-76
2022/05/02 05:04:49;;;;;;;59.00;35.25;;;;;;;3.23;100.00;101992.03;5292972;28;20079;-76
2022/05/02 05:07:21;;;;;;;67.10;38.28;;;;;;;3.15;100.00;101999.41;5288568;28;20025;-76
2022/05/02 05:09:52;;;;;;;77.35;44.42;;;;;;;3.16;100.00;102001.13;5288093;28;20032;-76
2022/05/02 05:12:41;;;;;;;72.57;41.35;;;;;;;3.19;100.00;101999.22;5280431;28;20383;-76
2022/05/02 05:18:46;;;;;;;59.15;36.33;;;;;;;3.14;100.00;102002.97;5286196;28;20131;-76
2022/05/02 05:21:44;;;;;;;59.65;36.05;;;;;;;3.33;100.00;101997.75;5282083;28;20086;-77
2022/05/02 05:24:49;;;;;;;52.78;33.00;;;;;;;3.53;100.00;102000.34;5298309;28;20024;-76
2022/05/02 05:27:42;;;;;;;52.67;32.22;;;;;;;4.15;100.00;101998.41;5303651;28;20478;-76
2022/05/02 05:30:19;;;;;;;61.70;36.63;;;;;;;4.19;100.00;101988.56;5293006;28;20025;-76
2022/05/02 05:33:08;;;;;;;63.45;34.80;;;;;;;4.62;100.00;101999.66;5291077;28;20136;-76
2022/05/02 05:36:02;;;;;;;66.80;33.03;;;;;;;4.91;100.00;101990.28;5302019;28;30509;-76
2022/05/02 05:39:02;;;;;;;65.13;34.42;;;;;;;5.37;100.00;101988.88;5303150;28;20070;-76
2022/05/02 05:42:17;;;;;;;53.47;35.00;;;;;;;5.73;100.00;101991.31;5290630;28;20494;-76
2022/05/02 05:45:01;;;;;;;55.30;33.85;;;;;;;5.99;100.00;101991.72;5280074;28;20075;-76
2022/05/02 05:47:59;;;;;;;50.50;30.65;;;;;;;6.34;100.00;101987.09;5280632;28;20146;-76
2022/05/02 05:50:32;;;;;;;43.80;30.33;;;;;;;6.58;100.00;101989.31;5288375;28;20450;-75
2022/05/02 05:53:24;;;;;;;35.92;27.67;;;;;;;7.00;100.00;101993.88;5303703;28;20585;-76
2022/05/02 05:56:23;;;;;;;44.50;27.10;;;;;;;7.60;100.00;101997.38;5283166;28;20033;-76
2022/05/02 05:59:08;;;;;;;35.28;26.02;;;;;;;7.87;100.00;102008.09;5281229;28;20031;-75
2022/05/02 06:01:42;;;;;;;32.60;26.25;;;;;;;8.18;100.00;101994.66;5280989;28;20060;-76
2022/05/02 06:04:15;;;;;;;31.60;23.85;;;;;;;8.41;100.00;101998.47;5288731;28;20033;-76
2022/05/02 06:06:47;;;;;;;32.72;21.65;;;;;;;9.00;100.00;101993.69;5304615;28;20031;-76
2022/05/02 06:09:20;;;;;;;29.15;23.50;;;;;;;9.13;100.00;101998.16;5291857;28;20024;-76
2022/05/02 06:11:55;;;;;;;26.05;20.23;;;;;;;9.83;100.00;101987.94;5295073;28;20024;-77
2022/05/02 06:14:30;;;;;;;23.52;21.13;;;;;;;10.18;100.00;101991.66;5292238;28;20024;-76
2022/05/02 06:19:53;;;;;;;24.67;20.58;;;;;;;11.32;100.00;101993.81;5281962;28;20491;-76
2022/05/02 06:22:27;;;;;;;22.58;18.65;;;;;;;11.48;100.00;101989.00;5281901;28;20032;-76
2022/05/02 06:25:02;;;;;;;25.17;19.20;;;;;;;11.88;100.00;101983.13;5294414;28;20012;-76
2022/05/02 06:27:34;;;;;;;20.63;18.52;;;;;;;12.39;100.00;101980.88;5300340;28;20055;-76
2022/05/02 06:30:05;;;;;;;21.33;18.25;;;;;;;12.77;100.00;101977.69;5302196;28;20021;-76
2022/05/02 06:32:37;;;;;;;21.83;17.38;;;;;;;12.93;100.00;101974.56;5302711;28;20063;-76
2022/05/02 06:35:09;;;;;;;19.38;17.15;;;;;;;13.73;100.00;101974.91;5300931;28;20048;-76
2022/05/02 06:37:54;;;;;;;17.98;15.88;;;;;;;14.00;100.00;101974.25;5302711;28;20430;-76
2022/05/02 06:41:03;;;;;;;20.42;16.67;;;;;;;14.46;100.00;101985.34;5302673;28;20032;-76
2022/05/02 06:43:43;;;;;;;18.88;16.30;;;;;;;15.04;100.00;101977.31;5302046;28;20040;-76
2022/05/02 06:46:18;;;;;;;17.42;15.68;;;;;;;15.55;100.00;101985.94;5301678;28;20040;-76
2022/05/02 06:48:55;;;;;;;18.30;15.50;;;;;;;15.30;100.00;101988.28;5301932;28;20382;-76
2022/05/02 06:51:29;;;;;;;;;;;;;;;16.42;100.00;101981.09;5297208;28;20025;-76
2022/05/02 06:54:26;;;;;;;17.13;15.32;;;;;;;16.47;100.00;101986.03;5280719;28;20007;-76
2022/05/02 06:57:14;;;;;;;20.45;14.65;;;;;;;16.97;100.00;101978.25;5290775;28;20390;-76
2022/05/02 06:59:57;;;;;;;17.60;15.10;;;;;;;17.46;100.00;101983.13;5306046;28;20036;-76
2022/05/02 07:02:55;;;;;;;18.48;14.95;;;;;;;17.60;100.00;101980.81;5305491;28;20030;-76
2022/05/02 07:05:36;;;;;;;17.23;13.73;;;;;;;18.33;100.00;101972.97;5306281;28;20031;-76
2022/05/02 07:08:08;;;;;;;17.73;13.18;;;;;;;17.84;95.74;101967.41;5288244;28;20025;-76
2022/05/02 07:10:43;;;;;;;13.70;12.30;;;;;;;18.79;98.35;101974.38;5306482;28;20028;-76
2022/05/02 07:13:30;;;;;;;17.60;12.95;;;;;;;19.65;88.53;101978.28;5305389;28;20025;-76
2022/05/02 07:16:04;;;;;;;14.52;12.40;;;;;;;20.07;76.05;101985.22;5305576;28;20158;-76
2022/05/02 07:18:48;;;;;;;14.45;12.95;;;;;;;20.30;75.74;101979.00;5305529;28;20094;-76
2022/05/02 07:21:29;;;;;;;13.30;11.38;;;;;;;20.05;61.42;101973.72;5303269;28;20112;-76
2022/05/02 07:24:23;;;;;;;13.48;11.48;;;;;;;20.79;57.82;101975.94;5294310;28;20522;-76
2022/05/02 07:27:11;;;;;;;17.08;11.15;;;;;;;21.61;56.71;101972.44;5304454;28;20529;-76
2022/05/02 07:29:45;;;;;;;13.02;11.43;;;;;;;21.55;48.90;101972.38;5305323;28;20033;-76
2022/05/02 07:32:21;;;;;;;15.75;11.57;;;;;;;22.23;49.28;101967.53;5303780;28;20110;-77
2022/05/02 07:34:54;;;;;;;13.00;10.75;;;;;;;22.22;44.76;101963.97;5305393;28;20115;-77
2022/05/02 07:37:26;;;;;;;19.73;11.90;;;;;;;22.27;45.94;101967.00;5304018;28;20090;-76
2022/05/02 07:39:58;;;;;;;11.57;10.37;;;;;;;23.47;41.86;101974.47;5305510;28;20025;-76
2022/05/02 07:42:29;;;;;;;16.27;11.23;;;;;;;23.76;41.05;101976.91;5305370;28;20259;-76
2022/05/02 07:45:02;;;;;;;32.90;13.70;;;;;;;24.14;41.09;101976.47;5304962;28;20130;-76
2022/05/02 07:47:35;;;;;;;12.85;10.18;;;;;;;24.84;37.86;101973.44;5304757;28;20092;-77
2022/05/02 07:50:07;;;;;;;14.23;11.00;;;;;;;24.88;37.43;101965.69;5320734;28;20029;-77
2022/05/02 07:52:40;;;;;;;15.68;10.93;;;;;;;24.81;35.83;101970.31;5304583;28;20433;-77
2022/05/02 07:55:14;;;;;;;15.10;10.25;;;;;;;25.53;35.15;101968.53;5305024;28;20135;-77
2022/05/02 07:57:48;;;;;;;11.60;10.13;;;;;;;26.02;33.56;101974.44;5320073;27;20099;-77
2022/05/02 08:00:19;;;;;;;12.90;10.07;;;;;;;26.09;31.77;101971.66;5303222;28;20203;-76
2022/05/02 08:02:51;;;;;;;13.23;9.75;;;;;;;26.32;32.40;101968.38;5304401;28;20546;-77
2022/05/02 08:05:27;;;;;;;11.90;8.90;;;;;;;27.28;31.58;101969.94;5305023;28;20082;-77
2022/05/02 08:08:13;;;;;;;10.82;9.70;;;;;;;28.26;30.02;101973.56;5303071;28;20025;-77
2022/05/02 08:10:47;;;;;;;;;;;;;;;29.90;27.70;101968.31;5305133;28;20899;-77
2022/05/02 08:13:43;;;;;;;10.40;9.27;;;;;;;28.42;27.60;101969.31;5295110;28;19924;-74
2022/05/02 08:16:23;;;;;;;10.82;8.88;;;;;;;29.37;27.00;101973.00;5282970;28;20041;-77
2022/05/02 08:19:17;;;;;;;10.15;9.02;;;;;;;28.68;26.50;101967.22;5283419;28;20091;-76
2022/05/02 08:27:15;;;;;;;9.60;8.65;;;;;;;29.51;25.61;101959.00;5288321;28;20031;-76
2022/05/02 08:28:04;;;;;;;10.68;8.95;;;;;;;28.28;26.50;101965.94;5304519;28;20096;-76
2022/05/02 08:30:53;;;;;;;9.23;8.40;;;;;;;29.42;26.67;101962.13;5305058;28;20032;-76
2022/05/02 08:33:26;;;;;;;8.48;7.65;;;;;;;29.58;25.07;101966.00;5303576;28;20409;-77
2022/05/02 08:36:03;;;;;;;8.23;7.53;;;;;;;29.85;23.67;101965.47;5304787;28;20028;-76
2022/05/02 08:38:45;;;;;;;9.05;7.82;;;;;;;29.81;24.45;101955.22;5304423;28;20459;-77
2022/05/02 08:41:35;;;;;;;8.02;7.22;;;;;;;30.04;23.79;101963.38;5304276;28;20420;-77
2022/05/02 08:44:18;;;;;;;10.23;7.88;;;;;;;29.95;24.10;101960.19;5282825;28;20021;-77
2022/05/02 08:46:52;;;;;;;14.07;8.52;;;;;;;29.06;24.07;101960.44;5282866;28;20431;-77
2022/05/02 08:49:51;;;;;;;21.48;8.55;;;;;;;28.23;26.55;101959.50;5283044;28;20791;-77
2022/05/02 08:53:00;;;;;;;13.00;8.80;;;;;;;29.76;25.13;101956.78;5296111;28;20451;-76
2022/05/02 08:56:05;;;;;;;12.98;8.73;;;;;;;31.06;24.50;101956.03;5303877;28;20064;-76
2022/05/02 08:58:46;;;;;;;17.50;8.38;;;;;;;31.13;22.78;101952.25;5303252;28;20103;-76
2022/05/02 09:01:55;;;;;;;10.27;7.72;;;;;;;32.97;23.46;101956.13;5303855;28;20028;-76
2022/05/02 09:04:44;;;;;;;14.70;8.38;;;;;;;33.07;20.75;101952.63;5280855;28;20072;-76
2022/05/02 09:07:37;;;;;;;8.82;7.95;;;;;;;31.05;21.75;101948.88;5282961;28;20052;-77
2022/05/02 09:10:10;;;;;;;15.93;8.45;;;;;;;31.53;22.24;101942.91;5282467;28;20033;-76
2022/05/02 09:13:04;;;;;;;9.75;7.25;;;;;;;31.70;20.99;101951.94;5292263;28;20056;-77
2022/05/02 09:15:41;;;;;;;8.90;6.53;;;;;;;32.14;20.32;101953.81;5304256;28;20028;-76
2022/05/02 09:18:37;;;;;;;7.78;6.45;;;;;;;33.60;20.49;101947.06;5301760;28;20032;-76
2022/05/02 09:21:08;;;;;;;;;;;;;;;37.09;18.94;101951.38;5302973;28;20055;-77
2022/05/02 09:24:17;;;;;;;7.20;5.90;;;;;;;35.79;17.71;101947.19;5303154;28;19909;-77
2022/05/02 09:27:13;;;;;;;6.88;6.28;;;;;;;35.92;18.76;101945.72;5303032;28;20033;-76
2022/05/02 09:29:57;;;;;;;12.88;7.25;;;;;;;33.29;19.74;101942.25;5302704;28;20044;-76
2022/05/02 09:32:46;;;;;;;6.78;6.18;;;;;;;33.37;20.03;101934.53;5301707;28;29236;-76
2022/05/02 09:35:29;;;;;;;15.23;6.47;;;;;;;33.28;18.94;101935.06;5303035;28;20481;-77
2022/05/02 09:38:21;;;;;;;14.80;7.03;;;;;;;34.74;18.19;101937.84;5303494;28;20559;-77
2022/05/02 09:41:01;;;;;;;6.60;6.00;;;;;;;34.49;17.48;101936.72;5296661;28;20048;-76
2022/05/02 09:50:35;;;;;;;7.95;6.80;;;;;;;35.93;16.87;101928.78;5295285;28;20115;-76
2022/05/02 09:53:24;;;;;;;12.48;6.75;;;;;;;36.56;17.75;101934.69;5303184;28;20419;-76
2022/05/02 09:56:38;;;;;;;8.23;6.90;;;;;;;36.88;17.42;101918.25;5303150;28;20128;-77
2022/05/02 09:59:13;;;;;;;8.60;6.47;;;;;;;37.64;16.06;101924.03;5302445;28;20063;-77
2022/05/02 10:02:18;;;;;;;8.07;6.55;;;;;;;37.56;15.32;101924.66;5300195;28;28331;-76
2022/05/02 10:05:07;;;;;;;6.70;6.05;;;;;;;38.13;15.46;101924.69;5303073;28;20398;-77
2022/05/02 10:08:13;;;;;;;6.97;6.20;;;;;;;36.84;16.61;101916.38;5301895;28;20048;-76
2022/05/02 10:11:04;;;;;;;7.35;6.60;;;;;;;38.69;15.35;101910.91;5302913;28;20033;-76
2022/05/02 10:14:29;;;;;;;7.30;5.75;;;;;;;38.96;14.93;101899.75;5291414;28;20017;-74
2022/05/02 10:17:17;;;;;;;10.55;6.53;;;;;;;36.36;16.51;101917.06;5215737;28;20120;-76
2022/05/02 10:20:04;;;;;;;15.65;7.30;;;;;;;37.34;16.38;101908.53;5216895;28;20536;-76
2022/05/02 10:22:47;;;;;;;8.38;6.43;;;;;;;36.13;15.64;101911.16;5274444;28;20120;-76
2022/05/02 10:25:35;;;;;;;9.27;6.13;;;;;;;36.09;16.42;101910.06;5302241;28;20016;-76
2022/05/02 10:28:35;;;;;;;7.75;6.07;;;;;;;36.87;16.19;101908.28;5317951;28;20455;-77
2022/05/02 10:31:25;;;;;;;6.93;5.55;;;;;;;36.49;16.39;101898.91;5302766;28;20083;-76
2022/05/02 10:34:01;;;;;;;7.93;5.28;;;;;;;36.60;15.59;101905.19;5306270;28;20382;-77
2022/05/02 10:36:40;;;;;;;11.77;5.57;;;;;;;37.58;15.34;101902.09;5306338;28;20028;-77
2022/05/02 10:39:24;;;;;;;6.13;5.53;;;;;;;35.80;15.70;101895.28;5305255;28;20342;-77
2022/05/02 10:42:03;;;;;;;8.27;5.38;;;;;;;37.50;14.86;101886.88;5306625;28;20024;-77
2022/05/02 10:44:53;;;;;;;5.82;5.18;;;;;;;38.08;14.65;101885.75;5284770;28;20033;-77
2022/05/02 10:47:27;;;;;;;6.57;5.90;;;;;;;36.06;15.80;101891.19;5284473;28;20009;-77
2022/05/02 10:50:15;;;;;;;6.93;5.70;;;;;;;35.97;14.74;101888.22;5285421;28;20021;-77
2022/05/02 10:52:46;;;;;;;7.55;5.45;;;;;;;37.83;14.15;101873.91;5293097;28;20021;-77
2022/05/02 10:55:32;;;;;;;7.10;5.57;;;;;;;39.42;14.31;101883.19;5306539;28;20025;-76
2022/05/02 10:58:05;;;;;;;;;;;;;;;42.90;12.54;101879.56;5305851;28;20062;-76
2022/05/02 11:01:06;;;;;;;6.97;5.18;;;;;;;40.59;12.92;101871.09;5306993;28;19908;-76
2022/05/02 11:03:58;;;;;;;10.68;5.05;;;;;;;40.06;14.27;101871.91;5304507;28;20024;-76
2022/05/02 11:06:56;;;;;;;7.93;4.68;;;;;;;39.76;13.82;101863.13;5305373;28;20086;-77
2022/05/02 11:09:49;;;;;;;7.63;5.00;;;;;;;40.20;13.75;101869.88;5305108;28;20487;-76
2022/05/02 11:12:27;;;;;;;5.82;5.25;;;;;;;37.61;14.14;101859.75;5304646;28;20399;-77
2022/05/02 11:15:11;;;;;;;6.43;5.60;;;;;;;40.95;12.39;101858.06;5305642;28;20025;-77
2022/05/02 11:17:51;;;;;;;7.65;5.28;;;;;;;40.59;13.37;101865.50;5304199;28;20028;-76
2022/05/02 11:20:50;;;;;;;7.93;5.35;;;;;;;40.88;13.63;101863.31;5305865;28;20095;-76
2022/05/02 11:23:33;;;;;;;5.93;5.43;;;;;;;40.75;12.95;101851.88;5288648;28;20037;-77
2022/05/02 11:26:27;;;;;;;6.68;5.35;;;;;;;40.14;13.01;101848.00;5305158;28;20498;-77
2022/05/02 11:29:29;;;;;;;6.43;5.50;;;;;;;41.50;12.52;101843.50;5283998;28;20018;-76
2022/05/02 11:32:05;;;;;;;7.32;6.13;;;;;;;39.41;13.42;101842.47;5298290;28;20048;-77
2022/05/02 11:35:14;;;;;;;8.75;5.40;;;;;;;40.68;13.09;101845.94;5305599;28;20051;-77
2022/05/02 11:38:17;;;;;;;6.07;5.43;;;;;;;41.48;12.46;101831.81;5305108;28;20031;-76
2022/05/02 11:40:58;;;;;;;11.15;6.10;;;;;;;39.80;13.44;101827.88;5261734;28;20484;-75
2022/05/02 11:43:31;;;;;;;7.65;5.25;;;;;;;40.36;12.61;101833.13;5304041;28;20395;-76
2022/05/02 11:46:20;;;;;;;14.38;5.95;;;;;;;40.79;13.24;101824.09;5305152;28;20028;-77
2022/05/02 11:48:55;;;;;;;5.75;4.95;;;;;;;38.25;13.76;101828.69;5300955;28;20052;-76
2022/05/02 11:51:45;;;;;;;12.30;5.72;;;;;;;38.62;13.71;101829.66;5307118;27;20043;-77
2022/05/02 11:54:33;;;;;;;7.25;5.20;;;;;;;36.60;14.44;101831.00;5305499;28;20079;-76
2022/05/02 11:57:20;;;;;;;7.30;5.43;;;;;;;36.15;14.71;101825.63;5304211;28;20032;-76
2022/05/02 11:59:58;;;;;;;8.90;5.20;;;;;;;38.14;14.14;101817.72;5303917;28;20029;-76
2022/05/02 12:02:58;;;;;;;6.80;5.60;;;;;;;39.54;13.81;101821.25;5303934;28;20016;-76
2022/05/02 12:05:37;;;;;;;5.55;5.05;;;;;;;38.85;13.52;101819.41;5300246;28;20115;-76
2022/05/02 12:08:10;;;;;;;5.97;4.75;;;;;;;39.05;13.30;101818.19;5303690;28;20024;-77
2022/05/02 12:10:45;;;;;;;6.65;4.93;;;;;;;39.30;13.14;101822.34;5304295;28;20029;-77
2022/05/02 12:13:18;;;;;;;7.75;4.78;;;;;;;40.11;12.65;101823.47;5305154;27;20024;-77
2022/05/02 12:16:04;;;;;;;7.18;6.00;;;;;;;39.02;13.19;101818.78;5314905;28;20048;-77
2022/05/02 12:18:44;;;;;;;7.40;5.82;;;;;;;39.32;13.05;101815.31;5310655;28;20032;-77
2022/05/02 12:21:31;;;;;;;5.40;4.90;;;;;;;39.97;12.70;101806.81;5315271;28;20092;-77
2022/05/02 12:24:04;;;;;;;5.20;4.70;;;;;;;39.17;13.31;101812.06;5315011;28;20169;-77
2022/05/02 12:26:50;;;;;;;7.00;5.28;;;;;;;39.16;12.72;101814.03;5310219;28;20049;-77
2022/05/02 12:29:22;;;;;;;8.52;5.75;;;;;;;38.05;13.77;101799.22;5313677;28;20017;-77